createdAt,value
2023-02-15T00:03:39.929Z,23.40
2023-02-15T00:08:44.018Z,23.30
2023-02-15T00:13:48.157Z,23.30
2023-02-15T00:18:53.717Z,23.20
2023-02-15T00:23:58.995Z,23.10
2023-02-15T00:29:03.797Z,23.10
2023-02-15T00:34:28.843Z,23.00
2023-02-15T00:39:34.536Z,22.90
2023-02-15T00:44:38.956Z,22.80
2023-02-15T00:49:43.273Z,22.80
2023-02-15T00:54:47.428Z,22.70
2023-02-15T00:59:51.357Z,22.50
2023-02-15T01:04:55.274Z,22.50
2023-02-15T01:10:00.562Z,22.50
2023-02-15T01:15:04.823Z,22.40
2023-02-15T01:20:09.629Z,22.40
2023-02-15T01:25:14.248Z,22.40
2023-02-15T01:30:19.207Z,22.30
2023-02-15T01:35:23.528Z,22.10
2023-02-15T01:40:28.031Z,22.00
2023-02-15T01:45:34.324Z,22.00
2023-02-15T01:50:43.197Z,21.90
2023-02-15T01:55:56.536Z,21.80
2023-02-15T02:01:02.558Z,21.80
2023-02-15T02:06:06.698Z,21.80
2023-02-15T02:11:15.357Z,21.70
2023-02-15T02:16:41.601Z,21.70
2023-02-15T02:22:10.997Z,21.90
2023-02-15T02:27:49.098Z,21.90
2023-02-15T02:33:26.281Z,22.10
2023-02-15T02:38:49.148Z,22.40
2023-02-15T02:44:05.224Z,22.50
2023-02-15T02:49:09.176Z,22.60
2023-02-15T02:54:13.385Z,22.70
2023-02-15T02:59:32.596Z,22.90
2023-02-15T03:04:39.513Z,23.00
2023-02-15T03:09:48.439Z,23.00
2023-02-15T03:15:07.996Z,23.10
2023-02-15T03:20:22.901Z,23.10
2023-02-15T03:25:33.972Z,23.10
2023-02-15T03:30:40.913Z,23.10
2023-02-15T03:35:55.176Z,23.20
2023-02-15T03:41:13.026Z,23.10
2023-02-15T03:46:21.887Z,23.20
2023-02-15T03:51:36.347Z,23.20
2023-02-15T03:56:42.888Z,23.30
2023-02-15T04:02:21.124Z,23.30
2023-02-15T04:07:25.117Z,23.40
2023-02-15T04:12:29.092Z,23.70
2023-02-15T04:17:33.321Z,23.70
2023-02-15T04:22:56.291Z,23.70
2023-02-15T04:28:00.330Z,23.50
2023-02-15T04:33:04.360Z,23.60
2023-02-15T04:38:08.491Z,23.60
2023-02-15T04:43:12.830Z,23.70
2023-02-15T04:48:17.716Z,23.70
2023-02-15T04:53:21.608Z,23.70
2023-02-15T04:58:25.753Z,23.70
2023-02-15T05:03:29.875Z,23.70
2023-02-15T05:08:33.811Z,23.70
2023-02-15T05:13:37.844Z,23.70
2023-02-15T05:18:41.972Z,23.60
2023-02-15T05:23:47.325Z,23.50
2023-02-15T05:28:51.389Z,23.40
2023-02-15T05:33:55.712Z,23.00
2023-02-15T05:38:59.771Z,23.00
2023-02-15T05:44:04.404Z,22.90
2023-02-15T05:49:08.535Z,22.80
2023-02-15T05:54:12.837Z,22.70
2023-02-15T05:59:17.108Z,22.60
2023-02-15T06:04:21.132Z,22.40
2023-02-15T06:09:25.278Z,22.40
2023-02-15T06:14:29.308Z,22.30
2023-02-15T06:19:33.665Z,22.20
2023-02-15T06:24:37.683Z,22.10
2023-02-15T06:29:41.628Z,21.90
2023-02-15T06:34:47.064Z,21.90
2023-02-15T06:39:54.173Z,21.80
2023-02-15T06:44:58.623Z,21.80
2023-02-15T06:50:02.856Z,21.70
2023-02-15T06:55:07.563Z,21.90
2023-02-15T07:00:12.446Z,22.40
2023-02-15T07:05:16.907Z,22.60
2023-02-15T07:10:20.927Z,22.80
2023-02-15T07:15:25.170Z,23.00
2023-02-15T07:20:30.428Z,23.30
2023-02-15T07:25:34.355Z,23.30
2023-02-15T07:30:38.801Z,23.40
2023-02-15T07:35:53.157Z,23.40
2023-02-15T07:41:05.310Z,23.40
2023-02-15T07:46:12.881Z,23.60
2023-02-15T07:51:17.118Z,23.70
2023-02-15T07:56:21.193Z,23.80
2023-02-15T08:01:33.889Z,23.90
2023-02-15T08:06:38.830Z,23.80
2023-02-15T08:11:42.865Z,23.70
2023-02-15T08:16:52.136Z,23.50
2023-02-15T08:22:07.565Z,23.30
2023-02-15T08:27:12.475Z,23.20
2023-02-15T08:32:16.564Z,23.10
2023-02-15T08:37:21.057Z,23.10
2023-02-15T08:42:25.046Z,23.00
2023-02-15T08:47:29.337Z,23.00
2023-02-15T08:52:33.366Z,23.00
2023-02-15T08:57:38.659Z,22.90
2023-02-15T09:02:42.666Z,22.80
2023-02-15T09:07:46.864Z,22.70
2023-02-15T09:12:52.268Z,22.80
2023-02-15T09:17:56.284Z,22.70
2023-02-15T09:23:02.165Z,22.70
2023-02-15T09:28:06.279Z,22.70
2023-02-15T09:33:10.534Z,22.70
2023-02-15T09:38:16.018Z,22.60
2023-02-15T09:43:52.095Z,22.60
2023-02-15T09:49:07.860Z,22.70
2023-02-15T09:54:21.697Z,22.70
2023-02-15T09:59:37.408Z,22.60
2023-02-15T10:04:51.880Z,22.70
2023-02-15T10:10:02.007Z,22.70
2023-02-15T10:15:30.290Z,22.70
2023-02-15T10:21:11.439Z,22.70
2023-02-15T10:26:24.124Z,22.70
2023-02-15T10:31:35.367Z,22.70
2023-02-15T10:36:54.616Z,22.70
2023-02-15T10:42:22.905Z,22.70
2023-02-15T10:48:05.086Z,22.70
2023-02-15T10:53:27.883Z,22.70
2023-02-15T10:58:46.448Z,22.70
2023-02-15T11:04:11.909Z,22.70
2023-02-15T11:09:19.574Z,22.70
2023-02-15T11:14:44.593Z,22.70
2023-02-15T11:20:27.097Z,22.70
2023-02-15T11:25:34.204Z,22.80
2023-02-15T11:30:46.927Z,22.80
2023-02-15T11:36:14.299Z,23.00
2023-02-15T11:41:22.138Z,23.10
2023-02-15T11:46:26.694Z,23.10
2023-02-15T11:51:30.796Z,23.10
2023-02-15T11:56:36.087Z,23.10
2023-02-15T12:01:45.637Z,23.20
2023-02-15T12:07:04.593Z,23.10
2023-02-15T12:12:26.062Z,23.20
2023-02-15T12:17:56.255Z,23.20
2023-02-15T12:23:26.692Z,23.20
2023-02-15T12:29:02.937Z,23.20
2023-02-15T12:34:16.076Z,23.30
2023-02-15T12:39:23.589Z,23.40
2023-02-15T12:44:32.953Z,23.30
2023-02-15T12:49:38.948Z,23.20
2023-02-15T12:54:44.223Z,23.30
2023-02-15T12:59:59.176Z,23.20
2023-02-15T13:05:17.524Z,23.30
2023-02-15T13:10:37.417Z,23.30
2023-02-15T13:15:42.772Z,23.30
2023-02-15T13:20:48.084Z,23.40
2023-02-15T13:25:53.099Z,23.50
2023-02-15T13:30:58.154Z,23.50
2023-02-15T13:36:02.304Z,23.30
2023-02-15T13:41:12.723Z,23.30
2023-02-15T13:46:58.360Z,23.40
2023-02-15T13:52:12.715Z,23.30
2023-02-15T13:57:45.668Z,23.20
2023-02-15T14:03:11.134Z,23.40
2023-02-15T14:08:24.176Z,23.40
2023-02-15T14:13:48.462Z,23.30
2023-02-15T14:19:00.489Z,23.20
2023-02-15T14:24:33.429Z,23.30
2023-02-15T14:29:58.765Z,23.30
2023-02-15T14:35:05.369Z,23.10
2023-02-15T14:40:37.450Z,23.00
2023-02-15T14:46:17.069Z,23.00
2023-02-15T14:51:44.679Z,22.90
2023-02-15T14:57:04.837Z,22.80
2023-02-15T15:02:09.104Z,22.80
2023-02-15T15:07:20.607Z,22.80
2023-02-15T15:12:27.410Z,22.60
2023-02-15T15:17:34.794Z,22.50
2023-02-15T15:22:41.937Z,22.50
2023-02-15T15:27:55.496Z,22.50
2023-02-15T15:33:26.608Z,22.40
2023-02-15T15:38:36.758Z,22.30
2023-02-15T15:44:18.269Z,22.30
2023-02-15T15:49:28.473Z,22.30
2023-02-15T15:54:33.362Z,22.10
2023-02-15T15:59:38.045Z,22.10
2023-02-15T16:04:43.398Z,22.10
2023-02-15T16:10:01.554Z,22.10
2023-02-15T16:15:15.799Z,22.20
2023-02-15T16:20:35.358Z,22.10
2023-02-15T16:26:15.235Z,22.10
2023-02-15T16:31:26.279Z,22.00
2023-02-15T16:36:31.089Z,22.00
2023-02-15T16:41:38.098Z,22.10
2023-02-15T16:46:49.270Z,22.20
2023-02-15T16:52:10.409Z,22.30
2023-02-15T16:57:23.389Z,22.20
2023-02-15T17:02:54.421Z,22.20
2023-02-15T17:08:21.622Z,22.20
2023-02-15T17:13:28.560Z,22.10
2023-02-15T17:18:48.299Z,22.00
2023-02-15T17:24:02.038Z,22.00
2023-02-15T17:29:31.509Z,22.00
2023-02-15T17:35:11.660Z,22.00
2023-02-15T17:40:25.769Z,22.10
2023-02-15T17:45:46.242Z,21.90
2023-02-15T17:50:51.385Z,21.80
2023-02-15T17:55:59.133Z,21.80
2023-02-15T18:01:29.389Z,21.90
2023-02-15T18:06:59.090Z,21.90
2023-02-15T18:12:26.626Z,21.80
2023-02-15T18:17:43.453Z,21.80
2023-02-15T18:22:56.265Z,21.80
2023-02-15T18:28:03.093Z,21.70
2023-02-15T18:33:31.053Z,21.70
2023-02-15T18:38:40.752Z,22.20
2023-02-15T18:43:49.465Z,22.60
2023-02-15T18:49:00.660Z,22.80
2023-02-15T18:54:18.513Z,23.00
2023-02-15T18:59:26.265Z,23.10
2023-02-15T19:04:35.093Z,23.10
2023-02-15T19:09:42.256Z,23.30
2023-02-15T19:14:48.991Z,23.50
2023-02-15T19:19:56.018Z,23.50
2023-02-15T19:25:04.537Z,23.40
2023-02-15T19:30:23.284Z,23.40
2023-02-15T19:35:36.398Z,23.30
2023-02-15T19:40:44.237Z,23.30
2023-02-15T19:45:55.096Z,23.40
2023-02-15T19:51:02.034Z,23.40
2023-02-15T19:56:34.898Z,23.40
2023-02-15T20:01:44.028Z,23.30
2023-02-15T20:06:52.559Z,23.20
2023-02-15T20:11:59.441Z,23.20
2023-02-15T20:17:08.523Z,23.10
2023-02-15T20:22:30.236Z,23.00
2023-02-15T20:27:38.602Z,22.90
2023-02-15T20:32:47.964Z,22.90
2023-02-15T20:38:01.536Z,22.80
2023-02-15T20:43:16.712Z,22.70
2023-02-15T20:48:23.414Z,22.60
2023-02-15T20:53:37.937Z,22.60
2023-02-15T20:58:44.084Z,22.50
2023-02-15T21:03:50.479Z,22.50
2023-02-15T21:08:57.917Z,22.50
2023-02-15T21:14:06.054Z,22.30
2023-02-15T21:19:16.435Z,22.20
2023-02-15T21:24:29.684Z,22.20
2023-02-15T21:29:36.662Z,22.10
2023-02-15T21:34:42.724Z,22.10
2023-02-15T21:39:49.608Z,22.00
2023-02-15T21:45:13.545Z,21.90
2023-02-15T21:50:44.100Z,21.80
2023-02-15T21:55:50.061Z,21.80
2023-02-15T22:00:58.015Z,21.70
2023-02-15T22:06:03.736Z,21.70
2023-02-15T22:11:14.288Z,21.60
2023-02-15T22:16:23.121Z,21.50
2023-02-15T22:21:27.817Z,21.60
2023-02-15T22:26:33.260Z,21.60
2023-02-15T22:31:37.405Z,21.60
2023-02-15T22:36:41.527Z,21.50
2023-02-15T22:41:45.776Z,21.50
2023-02-15T22:46:49.744Z,21.50
2023-02-15T22:51:54.338Z,21.40
2023-02-15T22:56:58.795Z,21.30
2023-02-15T23:02:03.739Z,21.50
2023-02-15T23:07:17.080Z,21.50
2023-02-15T23:12:27.025Z,21.30
2023-02-15T23:17:31.315Z,21.20
2023-02-15T23:22:35.455Z,21.40
2023-02-15T23:27:58.390Z,21.80
2023-02-15T23:33:02.953Z,22.20
2023-02-15T23:38:19.992Z,22.60
2023-02-15T23:43:24.001Z,22.60
2023-02-15T23:48:39.241Z,22.60
2023-02-15T23:53:43.426Z,22.80
2023-02-15T23:58:47.665Z,22.90
